createdAt,value
2019-03-31T00:00:50.131Z,3.20
2019-03-31T00:30:54.571Z,2.70
2019-03-31T01:37:13.708Z,2.20
2019-03-31T02:07:17.507Z,1.50
2019-03-31T02:37:21.151Z,2.00
2019-03-31T03:07:26.687Z,2.10
2019-03-31T03:37:30.294Z,1.70
2019-03-31T04:07:33.863Z,2.30
2019-03-31T04:37:37.455Z,2.00
2019-03-31T05:07:41.049Z,2.00
2019-03-31T05:37:50.732Z,2.30
2019-03-31T06:07:49.994Z,4.20
2019-03-31T06:37:53.584Z,6.80
2019-03-31T07:07:57.177Z,7.90
2019-03-31T07:23:22.176Z,9.60
2019-03-31T07:28:25.892Z,10.30
2019-03-31T07:33:29.487Z,10.80
2019-03-31T07:38:38.830Z,12.00
2019-03-31T07:43:38.297Z,12.20
2019-03-31T07:48:41.888Z,12.80
2019-03-31T07:53:45.496Z,13.10
2019-03-31T07:58:49.097Z,13.60
2019-03-31T08:03:52.688Z,13.70
2019-03-31T08:08:56.322Z,14.40
2019-03-31T08:13:59.843Z,14.30
2019-03-31T08:19:03.515Z,14.90
2019-03-31T08:24:07.150Z,14.90
2019-03-31T08:29:10.826Z,15.30
2019-03-31T08:34:14.372Z,15.60
2019-03-31T08:39:17.977Z,15.20
2019-03-31T08:44:21.555Z,14.90
2019-03-31T08:49:25.135Z,15.30
2019-03-31T08:54:28.833Z,15.10
2019-03-31T08:59:32.394Z,14.80
2019-03-31T09:04:35.995Z,15.00
2019-03-31T09:09:39.592Z,14.90
2019-03-31T09:14:43.292Z,15.50
2019-03-31T09:19:46.911Z,15.30
2019-03-31T09:24:50.558Z,15.70
2019-03-31T09:29:54.157Z,15.40
2019-03-31T09:34:57.724Z,15.10
2019-03-31T09:40:01.299Z,15.70
2019-03-31T09:45:07.144Z,16.30
2019-03-31T09:50:17.182Z,16.60
2019-03-31T09:55:23.065Z,16.50
2019-03-31T10:00:41.207Z,15.40
2019-03-31T10:05:47.753Z,15.70
2019-03-31T10:10:50.271Z,15.80
2019-03-31T10:15:53.842Z,15.20
2019-03-31T10:20:57.526Z,16.10
2019-03-31T10:26:01.109Z,16.40
2019-03-31T10:31:04.752Z,16.40
2019-03-31T10:36:08.436Z,16.30
2019-03-31T10:41:11.996Z,15.90
2019-03-31T10:46:15.605Z,15.60
2019-03-31T10:51:19.231Z,15.40
2019-03-31T10:56:22.837Z,15.20
2019-03-31T11:01:26.401Z,14.60
2019-03-31T11:06:30.001Z,16.00
2019-03-31T11:11:33.611Z,15.10
2019-03-31T11:16:37.183Z,15.50
2019-03-31T11:21:42.424Z,16.00
2019-03-31T11:26:46.031Z,15.60
2019-03-31T11:31:49.646Z,15.60
2019-03-31T11:36:53.292Z,16.20
2019-03-31T11:41:56.872Z,17.30
2019-03-31T11:47:00.540Z,17.30
2019-03-31T11:52:04.277Z,16.40
2019-03-31T11:57:07.931Z,16.70
2019-03-31T12:02:25.916Z,16.20
2019-03-31T12:07:27.359Z,15.90
2019-03-31T12:12:22.099Z,15.90
2019-03-31T12:17:25.714Z,15.80
2019-03-31T12:22:29.329Z,16.40
2019-03-31T12:27:32.898Z,15.90
2019-03-31T12:32:38.684Z,15.40
2019-03-31T12:37:43.461Z,15.70
2019-03-31T12:42:47.104Z,16.40
2019-03-31T12:47:50.685Z,16.90
2019-03-31T12:52:54.336Z,15.70
2019-03-31T12:57:57.998Z,16.00
2019-03-31T13:03:01.672Z,16.40
2019-03-31T13:08:05.247Z,16.30
2019-03-31T13:13:08.844Z,16.20
2019-03-31T13:18:12.457Z,16.20
2019-03-31T13:23:16.019Z,15.70
2019-03-31T13:28:19.631Z,15.90
2019-03-31T13:33:23.234Z,15.70
2019-03-31T13:38:26.812Z,15.50
2019-03-31T13:43:30.423Z,14.80
2019-03-31T13:48:34.016Z,14.90
2019-03-31T13:53:37.614Z,14.90
2019-03-31T13:58:41.818Z,14.70
2019-03-31T14:03:45.597Z,14.70
2019-03-31T14:08:49.208Z,14.70
2019-03-31T14:13:55.836Z,14.90
2019-03-31T14:18:58.003Z,14.70
2019-03-31T14:24:01.591Z,14.50
2019-03-31T14:29:05.180Z,14.50
2019-03-31T14:34:08.819Z,14.00
2019-03-31T14:39:12.465Z,13.70
2019-03-31T14:44:16.095Z,13.90
2019-03-31T14:49:19.801Z,14.00
2019-03-31T14:54:23.392Z,14.00
2019-03-31T14:59:27.144Z,13.70
2019-03-31T15:04:30.819Z,13.90
2019-03-31T15:09:34.565Z,13.60
2019-03-31T15:14:38.179Z,13.40
2019-03-31T15:19:41.767Z,13.20
2019-03-31T15:24:45.370Z,12.90
2019-03-31T15:29:48.991Z,12.70
2019-03-31T15:34:52.571Z,12.50
2019-03-31T15:39:56.167Z,12.80
2019-03-31T15:44:59.772Z,12.70
2019-03-31T15:50:04.544Z,12.70
2019-03-31T15:55:09.210Z,12.40
2019-03-31T16:00:13.569Z,12.30
2019-03-31T16:05:17.249Z,12.10
2019-03-31T16:10:21.190Z,11.90
2019-03-31T16:15:24.943Z,11.70
2019-03-31T16:20:28.623Z,11.50
2019-03-31T16:25:33.959Z,11.10
2019-03-31T16:30:37.873Z,10.90
2019-03-31T16:35:41.457Z,10.80
2019-03-31T16:40:45.120Z,10.80
2019-03-31T16:45:48.796Z,10.70
2019-03-31T16:50:52.492Z,10.30
2019-03-31T16:55:56.074Z,10.30
2019-03-31T17:00:59.695Z,10.20
2019-03-31T17:06:03.283Z,10.20
2019-03-31T17:11:07.176Z,10.10
2019-03-31T17:16:10.813Z,10.00
2019-03-31T17:21:14.457Z,9.90
2019-03-31T17:26:18.079Z,9.50
2019-03-31T17:31:21.634Z,9.60
2019-03-31T17:36:25.303Z,9.50
2019-03-31T17:41:28.901Z,9.40
2019-03-31T17:46:32.568Z,9.40
2019-03-31T17:51:36.221Z,9.40
2019-03-31T17:56:39.828Z,9.40
2019-03-31T18:01:43.436Z,9.40
2019-03-31T18:06:47.083Z,9.50
2019-03-31T18:11:50.819Z,9.40
2019-03-31T18:16:54.663Z,9.50
2019-03-31T18:21:58.227Z,9.40
2019-03-31T18:27:01.887Z,9.30
2019-03-31T18:32:05.498Z,9.30
2019-03-31T18:37:09.123Z,9.20
2019-03-31T18:42:12.766Z,9.20
2019-03-31T18:47:16.449Z,9.20
2019-03-31T18:52:20.112Z,8.60
2019-03-31T18:57:28.056Z,8.10
2019-03-31T19:02:33.373Z,8.00
2019-03-31T19:07:44.385Z,7.90
2019-03-31T19:12:49.628Z,7.80
2019-03-31T19:17:57.818Z,7.80
2019-03-31T19:23:03.124Z,7.90
2019-03-31T19:28:26.227Z,8.10
2019-03-31T19:33:47.633Z,8.20
2019-03-31T19:39:01.929Z,8.20
2019-03-31T19:44:13.306Z,8.30
2019-03-31T19:49:33.706Z,8.20
2019-03-31T19:54:38.945Z,8.20
2019-03-31T19:59:44.159Z,8.20
2019-03-31T20:04:49.451Z,8.10
2019-03-31T20:09:54.688Z,8.20
2019-03-31T20:15:08.678Z,8.10
2019-03-31T20:20:30.264Z,8.20
2019-03-31T20:25:41.370Z,8.00
2019-03-31T20:30:55.464Z,8.00
2019-03-31T20:36:12.837Z,7.90
2019-03-31T20:41:18.131Z,8.00
2019-03-31T20:46:22.469Z,8.00
2019-03-31T20:51:26.063Z,8.00
2019-03-31T20:56:29.728Z,8.00
2019-03-31T21:01:33.288Z,8.00
2019-03-31T21:06:36.909Z,7.80
2019-03-31T21:11:40.463Z,7.80
2019-03-31T21:16:44.273Z,7.80
2019-03-31T21:21:47.830Z,7.80
2019-03-31T21:26:51.429Z,7.80
2019-03-31T21:31:54.985Z,7.60
2019-03-31T21:36:58.628Z,7.70
2019-03-31T21:42:02.249Z,7.70
2019-03-31T21:47:05.837Z,7.40
2019-03-31T21:52:09.599Z,7.20
2019-03-31T21:57:13.183Z,7.00
2019-03-31T22:02:16.909Z,7.00
2019-03-31T22:07:20.671Z,6.70
2019-03-31T22:12:24.229Z,6.40
2019-03-31T22:17:27.871Z,6.30
2019-03-31T22:22:31.548Z,6.30
2019-03-31T22:27:35.198Z,6.10
2019-03-31T22:32:38.849Z,5.90
2019-03-31T22:37:42.371Z,5.90
2019-03-31T22:42:46.093Z,5.80
2019-03-31T22:47:49.737Z,5.70
2019-03-31T22:52:53.359Z,5.70
2019-03-31T22:57:56.988Z,5.70
2019-03-31T23:03:00.553Z,5.80
2019-03-31T23:08:04.200Z,5.20
2019-03-31T23:13:07.804Z,5.20
2019-03-31T23:18:11.470Z,5.10
2019-03-31T23:23:15.162Z,5.00
2019-03-31T23:28:18.946Z,4.90
2019-03-31T23:33:22.491Z,4.80
2019-03-31T23:38:26.070Z,4.70
2019-03-31T23:43:29.647Z,4.50
2019-03-31T23:48:33.244Z,4.50
2019-03-31T23:53:36.808Z,4.50
2019-03-31T23:58:40.376Z,4.30
